YIDR weather

Idracowra Airport
Northern Territory, Australia

Public forecast

Using degrees Celsius for public forecast. Weather courtesy of forecast.io.

METAR (pilot weather report)

Closest report is Alice Springs Airport, 76.0 nm (140.8 km) N. Retrieved 2019/04/24 23:30 UTC (17 minutes ago):

YBAS 242330Z AUTO 13009KT 9999 // NCD 19/05 Q1022 RF00.0/000.0

TAF (pilot weather forecast)

Closest forecast is Alice Springs Airport, 76.0 nm (140.8 km) N. Retrieved 2019/04/24 18:00 UTC (6 hours ago):

TAF YBAS 241706Z 2418/2518 14006KT CAVOK FM250000 13014KT CAVOK FM250800 13006KT CAVOK